sensor_id;sensor_type;location;lat;lon;timestamp;temperature;humidity
66710;DHT22;53624;0.000;0.000;2023-06-24T00:01:34;17.80;99.90
66710;DHT22;53624;0.000;0.000;2023-06-24T00:04:02;17.80;99.90
66710;DHT22;53624;0.000;0.000;2023-06-24T00:06:31;17.70;99.90
66710;DHT22;53624;0.000;0.000;2023-06-24T00:08:59;17.90;99.90
66710;DHT22;53624;0.000;0.000;2023-06-24T00:11:28;18.00;99.90
66710;DHT22;53624;0.000;0.000;2023-06-24T00:13:55;17.90;99.90
66710;DHT22;53624;0.000;0.000;2023-06-24T00:16:23;17.90;99.90
66710;DHT22;53624;0.000;0.000;2023-06-24T00:18:53;17.90;99.90
66710;DHT22;53624;0.000;0.000;2023-06-24T00:21:24;18.00;99.90
66710;DHT22;53624;0.000;0.000;2023-06-24T00:23:57;18.00;99.90
66710;DHT22;53624;0.000;0.000;2023-06-24T00:26:28;18.10;99.90
66710;DHT22;53624;0.000;0.000;2023-06-24T00:28:55;18.20;99.90
66710;DHT22;53624;0.000;0.000;2023-06-24T00:31:23;18.20;99.90
66710;DHT22;53624;0.000;0.000;2023-06-24T00:33:50;18.30;99.90
66710;DHT22;53624;0.000;0.000;2023-06-24T00:36:18;18.30;99.90
66710;DHT22;53624;0.000;0.000;2023-06-24T00:38:46;18.30;99.90
66710;DHT22;53624;0.000;0.000;2023-06-24T00:41:16;18.30;99.90
66710;DHT22;53624;0.000;0.000;2023-06-24T00:43:43;18.30;99.90
66710;DHT22;53624;0.000;0.000;2023-06-24T00:46:11;18.30;99.90
66710;DHT22;53624;0.000;0.000;2023-06-24T00:48:41;18.40;99.90
66710;DHT22;53624;0.000;0.000;2023-06-24T00:51:09;18.40;99.90
66710;DHT22;53624;0.000;0.000;2023-06-24T00:53:36;18.50;99.90
66710;DHT22;53624;0.000;0.000;2023-06-24T00:56:04;18.40;99.90
66710;DHT22;53624;0.000;0.000;2023-06-24T00:58:33;18.40;99.90
66710;DHT22;53624;0.000;0.000;2023-06-24T01:01:02;18.30;99.90
66710;DHT22;53624;0.000;0.000;2023-06-24T01:03:31;18.30;99.90
66710;DHT22;53624;0.000;0.000;2023-06-24T01:05:59;18.30;99.90
66710;DHT22;53624;0.000;0.000;2023-06-24T01:08:26;18.30;99.90
66710;DHT22;53624;0.000;0.000;2023-06-24T01:10:54;18.30;99.90
66710;DHT22;53624;0.000;0.000;2023-06-24T01:13:21;18.30;99.90
66710;DHT22;53624;0.000;0.000;2023-06-24T01:15:51;18.30;99.90
66710;DHT22;53624;0.000;0.000;2023-06-24T01:18:20;18.30;99.90
66710;DHT22;53624;0.000;0.000;2023-06-24T01:20:49;18.30;99.90
66710;DHT22;53624;0.000;0.000;2023-06-24T01:23:34;18.30;99.90
66710;DHT22;53624;0.000;0.000;2023-06-24T01:26:16;18.30;99.90
66710;DHT22;53624;0.000;0.000;2023-06-24T01:31:38;18.30;99.90
66710;DHT22;53624;0.000;0.000;2023-06-24T01:34:08;18.30;99.90
66710;DHT22;53624;0.000;0.000;2023-06-24T01:36:38;18.30;99.90
66710;DHT22;53624;0.000;0.000;2023-06-24T01:39:08;18.30;99.90
66710;DHT22;53624;0.000;0.000;2023-06-24T01:41:37;18.30;99.90
66710;DHT22;53624;0.000;0.000;2023-06-24T01:44:08;18.20;99.90
66710;DHT22;53624;0.000;0.000;2023-06-24T01:46:38;18.20;99.90
66710;DHT22;53624;0.000;0.000;2023-06-24T01:49:08;18.20;99.90
66710;DHT22;53624;0.000;0.000;2023-06-24T01:51:38;18.20;99.90
66710;DHT22;53624;0.000;0.000;2023-06-24T01:54:10;18.30;99.90
66710;DHT22;53624;0.000;0.000;2023-06-24T01:56:38;18.30;99.90
66710;DHT22;53624;0.000;0.000;2023-06-24T01:59:07;18.30;99.90
66710;DHT22;53624;0.000;0.000;2023-06-24T02:01:36;18.30;99.90
66710;DHT22;53624;0.000;0.000;2023-06-24T02:04:06;18.40;99.90
66710;DHT22;53624;0.000;0.000;2023-06-24T02:06:35;18.40;99.90
66710;DHT22;53624;0.000;0.000;2023-06-24T02:09:03;18.40;99.90
66710;DHT22;53624;0.000;0.000;2023-06-24T02:11:31;18.30;99.90
66710;DHT22;53624;0.000;0.000;2023-06-24T02:14:01;18.30;99.90
66710;DHT22;53624;0.000;0.000;2023-06-24T02:16:30;18.30;99.90
66710;DHT22;53624;0.000;0.000;2023-06-24T02:18:59;18.30;99.90
66710;DHT22;53624;0.000;0.000;2023-06-24T02:21:31;18.20;99.90
66710;DHT22;53624;0.000;0.000;2023-06-24T02:23:58;18.20;99.90
66710;DHT22;53624;0.000;0.000;2023-06-24T02:26:26;18.20;99.90
66710;DHT22;53624;0.000;0.000;2023-06-24T02:28:54;18.20;99.90
66710;DHT22;53624;0.000;0.000;2023-06-24T02:31:21;18.20;99.90
66710;DHT22;53624;0.000;0.000;2023-06-24T02:33:49;18.10;99.90
66710;DHT22;53624;0.000;0.000;2023-06-24T02:36:19;18.00;99.90
66710;DHT22;53624;0.000;0.000;2023-06-24T02:38:48;18.00;99.90
66710;DHT22;53624;0.000;0.000;2023-06-24T02:41:16;17.90;99.90
66710;DHT22;53624;0.000;0.000;2023-06-24T02:43:44;17.90;99.90
66710;DHT22;53624;0.000;0.000;2023-06-24T02:46:11;17.90;99.90
66710;DHT22;53624;0.000;0.000;2023-06-24T02:48:41;17.80;99.90
66710;DHT22;53624;0.000;0.000;2023-06-24T02:51:09;17.80;99.90
66710;DHT22;53624;0.000;0.000;2023-06-24T02:53:37;17.90;99.90
66710;DHT22;53624;0.000;0.000;2023-06-24T02:56:07;17.90;99.90
66710;DHT22;53624;0.000;0.000;2023-06-24T02:58:36;17.90;99.90
66710;DHT22;53624;0.000;0.000;2023-06-24T03:01:11;17.90;99.90
66710;DHT22;53624;0.000;0.000;2023-06-24T03:03:51;17.70;99.90
66710;DHT22;53624;0.000;0.000;2023-06-24T03:06:19;17.70;99.90
66710;DHT22;53624;0.000;0.000;2023-06-24T03:08:47;17.40;99.90
66710;DHT22;53624;0.000;0.000;2023-06-24T03:11:18;17.50;99.90
66710;DHT22;53624;0.000;0.000;2023-06-24T03:13:45;17.50;99.90
66710;DHT22;53624;0.000;0.000;2023-06-24T03:16:25;17.30;99.90
66710;DHT22;53624;0.000;0.000;2023-06-24T03:18:58;17.10;99.90
66710;DHT22;53624;0.000;0.000;2023-06-24T03:21:26;17.10;99.90
66710;DHT22;53624;0.000;0.000;2023-06-24T03:23:56;17.00;99.90
66710;DHT22;53624;0.000;0.000;2023-06-24T03:26:32;16.90;99.90
66710;DHT22;53624;0.000;0.000;2023-06-24T03:29:00;16.90;99.90
66710;DHT22;53624;0.000;0.000;2023-06-24T03:31:29;16.80;99.90
66710;DHT22;53624;0.000;0.000;2023-06-24T03:33:56;16.70;99.90
66710;DHT22;53624;0.000;0.000;2023-06-24T03:36:25;16.60;99.90
66710;DHT22;53624;0.000;0.000;2023-06-24T03:38:53;16.60;99.90
66710;DHT22;53624;0.000;0.000;2023-06-24T03:41:20;16.70;99.90
66710;DHT22;53624;0.000;0.000;2023-06-24T03:43:50;16.60;99.90
66710;DHT22;53624;0.000;0.000;2023-06-24T03:46:18;16.40;99.90
66710;DHT22;53624;0.000;0.000;2023-06-24T03:48:45;16.20;99.90
66710;DHT22;53624;0.000;0.000;2023-06-24T03:51:13;16.30;99.90
66710;DHT22;53624;0.000;0.000;2023-06-24T03:53:41;16.10;99.90
66710;DHT22;53624;0.000;0.000;2023-06-24T03:56:08;16.20;99.90
66710;DHT22;53624;0.000;0.000;2023-06-24T03:58:36;16.40;99.90
66710;DHT22;53624;0.000;0.000;2023-06-24T04:01:05;16.10;99.90
66710;DHT22;53624;0.000;0.000;2023-06-24T04:03:32;16.40;99.90
66710;DHT22;53624;0.000;0.000;2023-06-24T04:06:00;16.40;99.90
66710;DHT22;53624;0.000;0.000;2023-06-24T04:08:28;16.40;99.90
66710;DHT22;53624;0.000;0.000;2023-06-24T04:11:01;16.40;99.90
66710;DHT22;53624;0.000;0.000;2023-06-24T05:06:08;17.20;99.90
66710;DHT22;53624;0.000;0.000;2023-06-24T05:08:35;17.20;99.90
66710;DHT22;53624;0.000;0.000;2023-06-24T05:11:02;17.30;99.90
66710;DHT22;53624;0.000;0.000;2023-06-24T05:13:31;17.30;99.90
66710;DHT22;53624;0.000;0.000;2023-06-24T05:15:58;17.30;99.90
66710;DHT22;53624;0.000;0.000;2023-06-24T05:18:26;17.30;99.90
66710;DHT22;53624;0.000;0.000;2023-06-24T05:20:53;17.40;99.90
66710;DHT22;53624;0.000;0.000;2023-06-24T05:23:22;17.40;99.90
66710;DHT22;53624;0.000;0.000;2023-06-24T05:25:49;17.50;99.90
66710;DHT22;53624;0.000;0.000;2023-06-24T05:28:17;17.50;99.90
66710;DHT22;53624;0.000;0.000;2023-06-24T05:30:44;17.60;99.90
66710;DHT22;53624;0.000;0.000;2023-06-24T05:33:13;17.60;99.90
66710;DHT22;53624;0.000;0.000;2023-06-24T05:35:42;17.70;99.90
66710;DHT22;53624;0.000;0.000;2023-06-24T05:38:15;17.80;99.90
66710;DHT22;53624;0.000;0.000;2023-06-24T05:40:46;17.80;99.90
66710;DHT22;53624;0.000;0.000;2023-06-24T05:43:13;17.90;99.90
66710;DHT22;53624;0.000;0.000;2023-06-24T05:45:45;18.00;99.90
66710;DHT22;53624;0.000;0.000;2023-06-24T05:48:28;18.10;99.90
66710;DHT22;53624;0.000;0.000;2023-06-24T05:52:00;18.20;99.90
66710;DHT22;53624;0.000;0.000;2023-06-24T05:54:31;18.30;99.90
66710;DHT22;53624;0.000;0.000;2023-06-24T05:57:01;18.40;99.90
66710;DHT22;53624;0.000;0.000;2023-06-24T05:59:32;18.50;99.90
66710;DHT22;53624;0.000;0.000;2023-06-24T06:01:59;18.60;99.90
66710;DHT22;53624;0.000;0.000;2023-06-24T06:04:29;18.80;99.90
66710;DHT22;53624;0.000;0.000;2023-06-24T06:06:56;19.00;99.90
66710;DHT22;53624;0.000;0.000;2023-06-24T06:09:24;19.10;99.90
66710;DHT22;53624;0.000;0.000;2023-06-24T06:12:14;19.20;99.90
66710;DHT22;53624;0.000;0.000;2023-06-24T06:15:05;19.40;99.90
66710;DHT22;53624;0.000;0.000;2023-06-24T06:17:32;19.50;99.90
66710;DHT22;53624;0.000;0.000;2023-06-24T06:20:00;19.70;99.90
66710;DHT22;53624;0.000;0.000;2023-06-24T06:22:28;19.80;99.90
66710;DHT22;53624;0.000;0.000;2023-06-24T06:24:55;20.00;99.90
66710;DHT22;53624;0.000;0.000;2023-06-24T06:27:23;20.10;99.90
66710;DHT22;53624;0.000;0.000;2023-06-24T06:29:50;20.20;99.90
66710;DHT22;53624;0.000;0.000;2023-06-24T06:32:19;20.40;99.90
66710;DHT22;53624;0.000;0.000;2023-06-24T06:34:47;20.50;99.90
66710;DHT22;53624;0.000;0.000;2023-06-24T06:37:14;20.80;99.90
66710;DHT22;53624;0.000;0.000;2023-06-24T06:39:42;21.00;99.90
66710;DHT22;53624;0.000;0.000;2023-06-24T06:42:11;21.20;99.90
66710;DHT22;53624;0.000;0.000;2023-06-24T06:44:40;21.40;99.90
66710;DHT22;53624;0.000;0.000;2023-06-24T06:47:08;21.60;99.90
66710;DHT22;53624;0.000;0.000;2023-06-24T06:49:37;21.80;99.90
66710;DHT22;53624;0.000;0.000;2023-06-24T06:52:05;22.20;99.90
66710;DHT22;53624;0.000;0.000;2023-06-24T06:54:32;22.50;99.90
66710;DHT22;53624;0.000;0.000;2023-06-24T06:57:00;22.70;99.90
66710;DHT22;53624;0.000;0.000;2023-06-24T06:59:28;23.00;99.00
66710;DHT22;53624;0.000;0.000;2023-06-24T07:01:55;23.20;98.70
66710;DHT22;53624;0.000;0.000;2023-06-24T07:04:23;23.40;97.30
66710;DHT22;53624;0.000;0.000;2023-06-24T07:06:52;23.60;97.10
66710;DHT22;53624;0.000;0.000;2023-06-24T07:09:19;23.70;95.90
66710;DHT22;53624;0.000;0.000;2023-06-24T07:11:47;23.80;96.10
66710;DHT22;53624;0.000;0.000;2023-06-24T07:14:14;23.90;97.50
66710;DHT22;53624;0.000;0.000;2023-06-24T07:16:48;23.90;97.30
66710;DHT22;53624;0.000;0.000;2023-06-24T07:19:16;24.00;96.50
66710;DHT22;53624;0.000;0.000;2023-06-24T07:21:44;23.70;96.60
66710;DHT22;53624;0.000;0.000;2023-06-24T07:24:14;23.90;96.60
66710;DHT22;53624;0.000;0.000;2023-06-24T07:26:42;24.30;96.80
66710;DHT22;53624;0.000;0.000;2023-06-24T07:29:09;24.60;95.20
66710;DHT22;53624;0.000;0.000;2023-06-24T07:31:52;25.00;94.50
66710;DHT22;53624;0.000;0.000;2023-06-24T07:34:20;25.50;93.60
66710;DHT22;53624;0.000;0.000;2023-06-24T07:36:47;25.80;92.00
66710;DHT22;53624;0.000;0.000;2023-06-24T07:42:41;26.40;90.90
66710;DHT22;53624;0.000;0.000;2023-06-24T07:45:09;26.80;90.20
66710;DHT22;53624;0.000;0.000;2023-06-24T07:47:37;27.00;89.40
66710;DHT22;53624;0.000;0.000;2023-06-24T07:53:41;27.40;87.70
66710;DHT22;53624;0.000;0.000;2023-06-24T07:56:08;27.10;87.50
66710;DHT22;53624;0.000;0.000;2023-06-24T07:58:37;26.70;88.40
66710;DHT22;53624;0.000;0.000;2023-06-24T08:04:10;26.10;88.50
66710;DHT22;53624;0.000;0.000;2023-06-24T08:06:47;26.00;88.20
66710;DHT22;53624;0.000;0.000;2023-06-24T08:12:05;25.90;87.00
66710;DHT22;53624;0.000;0.000;2023-06-24T08:14:34;26.10;87.40
66710;DHT22;53624;0.000;0.000;2023-06-24T08:17:02;26.20;87.30
66710;DHT22;53624;0.000;0.000;2023-06-24T08:19:29;26.20;85.60
66710;DHT22;53624;0.000;0.000;2023-06-24T08:21:57;26.20;86.50
66710;DHT22;53624;0.000;0.000;2023-06-24T08:24:24;26.30;86.00
66710;DHT22;53624;0.000;0.000;2023-06-24T08:26:52;26.30;86.00
66710;DHT22;53624;0.000;0.000;2023-06-24T08:29:20;26.30;85.50
66710;DHT22;53624;0.000;0.000;2023-06-24T08:31:50;26.40;84.40
66710;DHT22;53624;0.000;0.000;2023-06-24T08:37:10;26.50;84.10
66710;DHT22;53624;0.000;0.000;2023-06-24T08:39:37;26.60;83.50
66710;DHT22;53624;0.000;0.000;2023-06-24T08:42:05;26.80;82.70
66710;DHT22;53624;0.000;0.000;2023-06-24T08:44:33;26.50;83.10
66710;DHT22;53624;0.000;0.000;2023-06-24T08:47:02;26.40;82.60
66710;DHT22;53624;0.000;0.000;2023-06-24T08:49:30;26.10;84.00
66710;DHT22;53624;0.000;0.000;2023-06-24T08:52:00;26.20;84.90
66710;DHT22;53624;0.000;0.000;2023-06-24T08:54:28;26.10;88.00
66710;DHT22;53624;0.000;0.000;2023-06-24T08:56:55;26.10;83.30
66710;DHT22;53624;0.000;0.000;2023-06-24T08:59:23;26.00;86.30
66710;DHT22;53624;0.000;0.000;2023-06-24T09:01:51;26.30;83.30
66710;DHT22;53624;0.000;0.000;2023-06-24T09:04:20;25.90;84.40
66710;DHT22;53624;0.000;0.000;2023-06-24T09:06:47;25.90;87.30
66710;DHT22;53624;0.000;0.000;2023-06-24T09:09:18;26.40;84.50
66710;DHT22;53624;0.000;0.000;2023-06-24T09:11:52;26.80;82.20
66710;DHT22;53624;0.000;0.000;2023-06-24T09:14:20;26.50;83.20
66710;DHT22;53624;0.000;0.000;2023-06-24T09:16:51;26.10;86.70
66710;DHT22;53624;0.000;0.000;2023-06-24T09:19:24;26.60;85.70
66710;DHT22;53624;0.000;0.000;2023-06-24T09:21:55;26.80;84.80
66710;DHT22;53624;0.000;0.000;2023-06-24T09:24:35;26.80;86.60
66710;DHT22;53624;0.000;0.000;2023-06-24T09:27:11;26.90;84.50
66710;DHT22;53624;0.000;0.000;2023-06-24T09:29:39;27.00;83.50
66710;DHT22;53624;0.000;0.000;2023-06-24T09:32:07;26.90;85.30
66710;DHT22;53624;0.000;0.000;2023-06-24T09:34:36;26.90;83.10
66710;DHT22;53624;0.000;0.000;2023-06-24T09:37:03;26.80;82.30
66710;DHT22;53624;0.000;0.000;2023-06-24T09:39:35;26.80;83.20
66710;DHT22;53624;0.000;0.000;2023-06-24T09:42:03;26.80;81.60
66710;DHT22;53624;0.000;0.000;2023-06-24T09:44:41;26.80;82.70
66710;DHT22;53624;0.000;0.000;2023-06-24T09:47:14;26.90;87.20
66710;DHT22;53624;0.000;0.000;2023-06-24T09:49:43;27.10;84.60
66710;DHT22;53624;0.000;0.000;2023-06-24T09:52:10;27.20;80.50
66710;DHT22;53624;0.000;0.000;2023-06-24T09:54:42;27.20;84.50
66710;DHT22;53624;0.000;0.000;2023-06-24T09:57:11;27.20;81.10
66710;DHT22;53624;0.000;0.000;2023-06-24T09:59:39;26.60;81.40
66710;DHT22;53624;0.000;0.000;2023-06-24T10:02:07;26.50;82.10
66710;DHT22;53624;0.000;0.000;2023-06-24T10:04:38;26.70;82.30
66710;DHT22;53624;0.000;0.000;2023-06-24T10:07:07;26.90;82.90
66710;DHT22;53624;0.000;0.000;2023-06-24T10:09:35;27.10;82.90
66710;DHT22;53624;0.000;0.000;2023-06-24T10:12:02;27.10;83.00
66710;DHT22;53624;0.000;0.000;2023-06-24T10:14:30;27.10;81.80
66710;DHT22;53624;0.000;0.000;2023-06-24T10:17:02;27.20;82.80
66710;DHT22;53624;0.000;0.000;2023-06-24T10:19:37;27.30;85.80
66710;DHT22;53624;0.000;0.000;2023-06-24T10:22:08;27.00;82.50
66710;DHT22;53624;0.000;0.000;2023-06-24T10:24:38;27.10;84.90
66710;DHT22;53624;0.000;0.000;2023-06-24T10:27:09;27.30;81.40
66710;DHT22;53624;0.000;0.000;2023-06-24T10:29:41;27.40;80.50
66710;DHT22;53624;0.000;0.000;2023-06-24T10:32:11;27.40;83.70
66710;DHT22;53624;0.000;0.000;2023-06-24T10:34:39;27.40;86.50
66710;DHT22;53624;0.000;0.000;2023-06-24T10:37:10;27.50;82.30
66710;DHT22;53624;0.000;0.000;2023-06-24T10:39:38;27.40;82.30
66710;DHT22;53624;0.000;0.000;2023-06-24T10:44:52;27.60;86.00
66710;DHT22;53624;0.000;0.000;2023-06-24T10:47:21;27.50;84.40
66710;DHT22;53624;0.000;0.000;2023-06-24T10:49:49;27.30;85.70
66710;DHT22;53624;0.000;0.000;2023-06-24T10:52:19;26.90;82.70
66710;DHT22;53624;0.000;0.000;2023-06-24T10:54:47;26.90;83.50
66710;DHT22;53624;0.000;0.000;2023-06-24T10:57:15;27.20;82.50
66710;DHT22;53624;0.000;0.000;2023-06-24T10:59:47;27.50;83.20
66710;DHT22;53624;0.000;0.000;2023-06-24T11:02:15;27.60;86.40
66710;DHT22;53624;0.000;0.000;2023-06-24T11:04:43;27.60;81.70
66710;DHT22;53624;0.000;0.000;2023-06-24T11:07:11;27.50;84.10
66710;DHT22;53624;0.000;0.000;2023-06-24T11:09:40;27.20;86.30
66710;DHT22;53624;0.000;0.000;2023-06-24T11:12:08;27.50;85.40
66710;DHT22;53624;0.000;0.000;2023-06-24T11:14:36;27.60;84.10
66710;DHT22;53624;0.000;0.000;2023-06-24T11:17:04;27.70;82.10
66710;DHT22;53624;0.000;0.000;2023-06-24T11:19:31;27.60;83.90
66710;DHT22;53624;0.000;0.000;2023-06-24T11:21:59;27.80;84.70
66710;DHT22;53624;0.000;0.000;2023-06-24T11:24:27;27.70;80.50
66710;DHT22;53624;0.000;0.000;2023-06-24T11:26:56;27.80;84.80
66710;DHT22;53624;0.000;0.000;2023-06-24T11:29:24;27.90;82.50
66710;DHT22;53624;0.000;0.000;2023-06-24T11:31:51;28.00;83.70
66710;DHT22;53624;0.000;0.000;2023-06-24T11:34:19;28.10;83.10
66710;DHT22;53624;0.000;0.000;2023-06-24T11:36:47;28.10;83.60
66710;DHT22;53624;0.000;0.000;2023-06-24T11:39:21;28.00;83.30
66710;DHT22;53624;0.000;0.000;2023-06-24T11:41:49;28.00;80.00
66710;DHT22;53624;0.000;0.000;2023-06-24T11:44:18;28.10;78.30
66710;DHT22;53624;0.000;0.000;2023-06-24T11:46:46;28.00;78.20
66710;DHT22;53624;0.000;0.000;2023-06-24T11:49:14;28.00;81.10
66710;DHT22;53624;0.000;0.000;2023-06-24T11:51:45;28.00;84.20
66710;DHT22;53624;0.000;0.000;2023-06-24T11:54:14;28.10;82.40
66710;DHT22;53624;0.000;0.000;2023-06-24T11:56:43;28.10;83.50
66710;DHT22;53624;0.000;0.000;2023-06-24T11:59:22;28.10;80.30
66710;DHT22;53624;0.000;0.000;2023-06-24T12:01:54;28.10;80.70
66710;DHT22;53624;0.000;0.000;2023-06-24T12:04:26;28.10;81.20
66710;DHT22;53624;0.000;0.000;2023-06-24T12:06:54;28.10;79.00
66710;DHT22;53624;0.000;0.000;2023-06-24T12:09:22;28.20;80.00
66710;DHT22;53624;0.000;0.000;2023-06-24T12:14:47;28.20;80.30
66710;DHT22;53624;0.000;0.000;2023-06-24T12:17:15;28.30;81.30
66710;DHT22;53624;0.000;0.000;2023-06-24T12:19:43;28.40;84.20
66710;DHT22;53624;0.000;0.000;2023-06-24T12:22:11;28.30;83.90
66710;DHT22;53624;0.000;0.000;2023-06-24T12:24:38;28.40;80.10
66710;DHT22;53624;0.000;0.000;2023-06-24T12:27:06;28.40;83.40
66710;DHT22;53624;0.000;0.000;2023-06-24T12:29:34;28.50;82.80
66710;DHT22;53624;0.000;0.000;2023-06-24T12:32:03;28.40;78.20
66710;DHT22;53624;0.000;0.000;2023-06-24T12:34:31;28.30;76.20
66710;DHT22;53624;0.000;0.000;2023-06-24T12:36:58;28.30;78.70
66710;DHT22;53624;0.000;0.000;2023-06-24T12:39:26;28.30;78.80
66710;DHT22;53624;0.000;0.000;2023-06-24T12:41:57;28.40;78.70
66710;DHT22;53624;0.000;0.000;2023-06-24T12:44:29;28.30;77.70
66710;DHT22;53624;0.000;0.000;2023-06-24T12:46:56;28.50;81.40
66710;DHT22;53624;0.000;0.000;2023-06-24T12:49:25;28.50;79.00
66710;DHT22;53624;0.000;0.000;2023-06-24T12:51:53;28.40;80.70
66710;DHT22;53624;0.000;0.000;2023-06-24T12:54:21;28.40;81.20
66710;DHT22;53624;0.000;0.000;2023-06-24T12:56:49;28.50;82.90
66710;DHT22;53624;0.000;0.000;2023-06-24T12:59:16;28.40;80.00
66710;DHT22;53624;0.000;0.000;2023-06-24T13:02:31;28.50;79.30
66710;DHT22;53624;0.000;0.000;2023-06-24T13:18:50;29.10;78.00
66710;DHT22;53624;0.000;0.000;2023-06-24T13:23:01;29.20;77.30
66710;DHT22;53624;0.000;0.000;2023-06-24T13:24:24;29.10;76.80
66710;DHT22;53624;0.000;0.000;2023-06-24T13:27:00;29.20;79.60
66710;DHT22;53624;0.000;0.000;2023-06-24T13:29:27;29.20;79.00
66710;DHT22;53624;0.000;0.000;2023-06-24T13:31:55;29.20;76.90
66710;DHT22;53624;0.000;0.000;2023-06-24T13:34:24;29.20;76.10
66710;DHT22;53624;0.000;0.000;2023-06-24T13:36:51;29.30;77.20
66710;DHT22;53624;0.000;0.000;2023-06-24T13:39:19;29.40;75.50
66710;DHT22;53624;0.000;0.000;2023-06-24T13:41:49;29.40;76.50
66710;DHT22;53624;0.000;0.000;2023-06-24T13:44:18;29.30;76.50
66710;DHT22;53624;0.000;0.000;2023-06-24T13:46:46;29.30;76.20
66710;DHT22;53624;0.000;0.000;2023-06-24T13:49:13;29.40;75.30
66710;DHT22;53624;0.000;0.000;2023-06-24T13:51:42;29.30;74.80
66710;DHT22;53624;0.000;0.000;2023-06-24T13:54:09;29.30;75.30
66710;DHT22;53624;0.000;0.000;2023-06-24T13:56:37;29.50;75.80
66710;DHT22;53624;0.000;0.000;2023-06-24T13:59:05;29.40;76.60
66710;DHT22;53624;0.000;0.000;2023-06-24T14:01:32;29.50;76.00
66710;DHT22;53624;0.000;0.000;2023-06-24T14:04:00;29.40;74.60
66710;DHT22;53624;0.000;0.000;2023-06-24T14:06:27;29.40;74.90
66710;DHT22;53624;0.000;0.000;2023-06-24T14:08:56;29.40;74.90
66710;DHT22;53624;0.000;0.000;2023-06-24T14:11:24;29.40;76.10
66710;DHT22;53624;0.000;0.000;2023-06-24T14:13:51;29.40;76.80
66710;DHT22;53624;0.000;0.000;2023-06-24T14:16:19;29.30;79.40
66710;DHT22;53624;0.000;0.000;2023-06-24T14:18:46;29.20;78.20
66710;DHT22;53624;0.000;0.000;2023-06-24T14:21:14;29.30;78.10
66710;DHT22;53624;0.000;0.000;2023-06-24T14:23:41;29.30;79.40
66710;DHT22;53624;0.000;0.000;2023-06-24T14:26:11;29.40;78.10
66710;DHT22;53624;0.000;0.000;2023-06-24T14:28:38;29.50;75.10
66710;DHT22;53624;0.000;0.000;2023-06-24T14:31:05;29.50;74.90
66710;DHT22;53624;0.000;0.000;2023-06-24T14:33:33;29.40;73.00
66710;DHT22;53624;0.000;0.000;2023-06-24T14:36:01;29.30;72.10
66710;DHT22;53624;0.000;0.000;2023-06-24T14:38:28;29.30;74.80
66710;DHT22;53624;0.000;0.000;2023-06-24T14:40:56;29.30;74.80
66710;DHT22;53624;0.000;0.000;2023-06-24T14:43:25;29.30;76.50
66710;DHT22;53624;0.000;0.000;2023-06-24T14:45:53;29.20;78.10
66710;DHT22;53624;0.000;0.000;2023-06-24T14:48:21;29.20;75.60
66710;DHT22;53624;0.000;0.000;2023-06-24T14:50:48;29.20;76.70
66710;DHT22;53624;0.000;0.000;2023-06-24T14:53:16;29.30;77.50
66710;DHT22;53624;0.000;0.000;2023-06-24T14:55:43;29.30;77.50
66710;DHT22;53624;0.000;0.000;2023-06-24T14:58:11;29.40;74.10
66710;DHT22;53624;0.000;0.000;2023-06-24T15:00:40;29.30;76.40
66710;DHT22;53624;0.000;0.000;2023-06-24T15:03:08;29.30;74.60
66710;DHT22;53624;0.000;0.000;2023-06-24T15:05:35;29.40;74.50
66710;DHT22;53624;0.000;0.000;2023-06-24T15:08:03;29.40;76.80
66710;DHT22;53624;0.000;0.000;2023-06-24T15:10:30;29.30;78.00
66710;DHT22;53624;0.000;0.000;2023-06-24T15:12:59;29.30;78.50
66710;DHT22;53624;0.000;0.000;2023-06-24T15:15:38;29.30;78.90
66710;DHT22;53624;0.000;0.000;2023-06-24T15:18:12;29.20;78.10
66710;DHT22;53624;0.000;0.000;2023-06-24T15:20:41;29.20;77.60
66710;DHT22;53624;0.000;0.000;2023-06-24T15:23:10;29.10;78.20
66710;DHT22;53624;0.000;0.000;2023-06-24T15:25:41;28.90;77.30
66710;DHT22;53624;0.000;0.000;2023-06-24T15:28:08;29.00;78.80
66710;DHT22;53624;0.000;0.000;2023-06-24T15:30:36;28.90;76.00
66710;DHT22;53624;0.000;0.000;2023-06-24T15:33:03;28.90;78.90
66710;DHT22;53624;0.000;0.000;2023-06-24T15:35:32;28.90;76.60
66710;DHT22;53624;0.000;0.000;2023-06-24T15:38:00;28.80;79.60
66710;DHT22;53624;0.000;0.000;2023-06-24T15:40:28;28.80;79.40
66710;DHT22;53624;0.000;0.000;2023-06-24T15:42:55;28.80;77.10
66710;DHT22;53624;0.000;0.000;2023-06-24T15:45:23;28.90;78.50
66710;DHT22;53624;0.000;0.000;2023-06-24T15:47:51;28.80;79.60
66710;DHT22;53624;0.000;0.000;2023-06-24T15:50:19;28.70;78.20
66710;DHT22;53624;0.000;0.000;2023-06-24T15:52:48;28.60;80.00
66710;DHT22;53624;0.000;0.000;2023-06-24T15:58:02;28.60;79.50
66710;DHT22;53624;0.000;0.000;2023-06-24T16:00:31;28.50;80.50
66710;DHT22;53624;0.000;0.000;2023-06-24T16:02:58;28.40;81.10
66710;DHT22;53624;0.000;0.000;2023-06-24T16:05:26;28.30;80.40
66710;DHT22;53624;0.000;0.000;2023-06-24T16:07:55;28.30;76.10
66710;DHT22;53624;0.000;0.000;2023-06-24T16:10:22;28.20;79.60
66710;DHT22;53624;0.000;0.000;2023-06-24T16:12:50;28.20;78.70
66710;DHT22;53624;0.000;0.000;2023-06-24T16:15:17;28.20;77.90
66710;DHT22;53624;0.000;0.000;2023-06-24T16:17:45;28.10;79.50
66710;DHT22;53624;0.000;0.000;2023-06-24T16:20:13;28.00;80.80
66710;DHT22;53624;0.000;0.000;2023-06-24T16:22:42;27.90;81.00
66710;DHT22;53624;0.000;0.000;2023-06-24T16:25:11;27.70;79.50
66710;DHT22;53624;0.000;0.000;2023-06-24T16:27:39;27.70;81.20
66710;DHT22;53624;0.000;0.000;2023-06-24T16:30:07;27.60;78.70
66710;DHT22;53624;0.000;0.000;2023-06-24T16:32:34;27.50;79.30
66710;DHT22;53624;0.000;0.000;2023-06-24T16:35:05;27.40;80.70
66710;DHT22;53624;0.000;0.000;2023-06-24T16:37:34;27.40;79.80
66710;DHT22;53624;0.000;0.000;2023-06-24T16:40:02;27.30;81.20
66710;DHT22;53624;0.000;0.000;2023-06-24T16:42:31;27.10;83.80
66710;DHT22;53624;0.000;0.000;2023-06-24T16:44:58;27.10;78.50
66710;DHT22;53624;0.000;0.000;2023-06-24T16:47:26;27.10;81.90
66710;DHT22;53624;0.000;0.000;2023-06-24T16:49:53;27.10;81.40
66710;DHT22;53624;0.000;0.000;2023-06-24T16:52:21;27.00;82.30
66710;DHT22;53624;0.000;0.000;2023-06-24T16:54:53;27.00;83.80
66710;DHT22;53624;0.000;0.000;2023-06-24T16:57:21;26.90;84.00
66710;DHT22;53624;0.000;0.000;2023-06-24T16:59:50;26.90;84.10
66710;DHT22;53624;0.000;0.000;2023-06-24T17:02:18;26.70;85.60
66710;DHT22;53624;0.000;0.000;2023-06-24T17:04:45;26.70;84.00
66710;DHT22;53624;0.000;0.000;2023-06-24T17:07:13;26.60;83.80
66710;DHT22;53624;0.000;0.000;2023-06-24T17:09:40;26.60;85.30
66710;DHT22;53624;0.000;0.000;2023-06-24T17:12:10;26.50;86.70
66710;DHT22;53624;0.000;0.000;2023-06-24T17:14:45;26.50;87.50
66710;DHT22;53624;0.000;0.000;2023-06-24T17:17:14;26.40;85.60
66710;DHT22;53624;0.000;0.000;2023-06-24T17:19:42;26.30;87.80
66710;DHT22;53624;0.000;0.000;2023-06-24T17:22:10;26.30;89.00
66710;DHT22;53624;0.000;0.000;2023-06-24T17:24:37;26.20;87.30
66710;DHT22;53624;0.000;0.000;2023-06-24T17:27:05;26.10;90.20
66710;DHT22;53624;0.000;0.000;2023-06-24T17:29:32;26.00;89.20
66710;DHT22;53624;0.000;0.000;2023-06-24T17:32:00;26.00;90.00